sensor_id;sensor_type;location;lat;lon;timestamp;temperature;humidity
56240;DHT22;42154;51.992;5.896;2023-04-19T00:00:10;11.30;99.90
56240;DHT22;42154;51.992;5.896;2023-04-19T00:02:37;11.30;99.90
56240;DHT22;42154;51.992;5.896;2023-04-19T00:05:03;11.40;99.90
56240;DHT22;42154;51.992;5.896;2023-04-19T00:07:30;11.30;99.90
56240;DHT22;42154;51.992;5.896;2023-04-19T00:09:55;11.30;99.90
56240;DHT22;42154;51.992;5.896;2023-04-19T00:12:21;11.30;99.90
56240;DHT22;42154;51.992;5.896;2023-04-19T00:14:47;11.30;99.90
56240;DHT22;42154;51.992;5.896;2023-04-19T00:17:12;11.20;99.90
56240;DHT22;42154;51.992;5.896;2023-04-19T00:19:38;11.20;99.90
56240;DHT22;42154;51.992;5.896;2023-04-19T00:22:04;11.20;99.90
56240;DHT22;42154;51.992;5.896;2023-04-19T00:24:30;11.10;99.90
56240;DHT22;42154;51.992;5.896;2023-04-19T00:26:56;11.10;99.90
56240;DHT22;42154;51.992;5.896;2023-04-19T00:29:21;11.10;99.90
56240;DHT22;42154;51.992;5.896;2023-04-19T00:31:47;11.00;99.90
56240;DHT22;42154;51.992;5.896;2023-04-19T00:34:13;11.00;99.90
56240;DHT22;42154;51.992;5.896;2023-04-19T00:36:39;10.90;99.90
56240;DHT22;42154;51.992;5.896;2023-04-19T00:39:05;10.80;99.90
56240;DHT22;42154;51.992;5.896;2023-04-19T00:41:31;10.80;99.90
56240;DHT22;42154;51.992;5.896;2023-04-19T00:43:57;10.80;99.90
56240;DHT22;42154;51.992;5.896;2023-04-19T00:46:22;10.70;99.90
56240;DHT22;42154;51.992;5.896;2023-04-19T00:48:49;10.70;99.90
56240;DHT22;42154;51.992;5.896;2023-04-19T00:51:15;10.60;99.90
56240;DHT22;42154;51.992;5.896;2023-04-19T00:53:42;10.60;99.90
56240;DHT22;42154;51.992;5.896;2023-04-19T00:56:08;10.60;99.90
56240;DHT22;42154;51.992;5.896;2023-04-19T00:58:37;10.60;99.90
56240;DHT22;42154;51.992;5.896;2023-04-19T01:01:03;10.60;99.90
56240;DHT22;42154;51.992;5.896;2023-04-19T01:03:29;10.60;99.90
56240;DHT22;42154;51.992;5.896;2023-04-19T01:05:55;10.60;99.90
56240;DHT22;42154;51.992;5.896;2023-04-19T01:08:22;10.60;99.90
56240;DHT22;42154;51.992;5.896;2023-04-19T01:10:47;10.50;99.90
56240;DHT22;42154;51.992;5.896;2023-04-19T01:13:14;10.60;99.90
56240;DHT22;42154;51.992;5.896;2023-04-19T01:15:40;10.60;99.90
56240;DHT22;42154;51.992;5.896;2023-04-19T01:18:06;10.60;99.90
56240;DHT22;42154;51.992;5.896;2023-04-19T01:20:32;10.50;99.90
56240;DHT22;42154;51.992;5.896;2023-04-19T01:22:57;10.60;99.90
56240;DHT22;42154;51.992;5.896;2023-04-19T01:25:23;10.60;99.90
56240;DHT22;42154;51.992;5.896;2023-04-19T01:27:49;10.60;99.90
56240;DHT22;42154;51.992;5.896;2023-04-19T01:30:15;10.50;99.90
56240;DHT22;42154;51.992;5.896;2023-04-19T01:32:40;10.50;99.90
56240;DHT22;42154;51.992;5.896;2023-04-19T01:35:06;10.40;99.90
56240;DHT22;42154;51.992;5.896;2023-04-19T01:37:36;10.40;99.90
56240;DHT22;42154;51.992;5.896;2023-04-19T01:40:03;10.30;99.90
56240;DHT22;42154;51.992;5.896;2023-04-19T01:42:30;10.30;99.90
56240;DHT22;42154;51.992;5.896;2023-04-19T01:44:58;10.20;99.90
56240;DHT22;42154;51.992;5.896;2023-04-19T01:47:25;10.30;99.90
56240;DHT22;42154;51.992;5.896;2023-04-19T01:49:51;10.20;99.90
56240;DHT22;42154;51.992;5.896;2023-04-19T01:52:17;10.20;99.90
56240;DHT22;42154;51.992;5.896;2023-04-19T01:54:42;10.20;99.90
56240;DHT22;42154;51.992;5.896;2023-04-19T01:57:08;10.10;99.90
56240;DHT22;42154;51.992;5.896;2023-04-19T01:59:34;10.10;99.90
56240;DHT22;42154;51.992;5.896;2023-04-19T02:02:00;10.10;99.90
56240;DHT22;42154;51.992;5.896;2023-04-19T02:04:25;10.10;99.90
56240;DHT22;42154;51.992;5.896;2023-04-19T02:06:51;10.00;99.90
56240;DHT22;42154;51.992;5.896;2023-04-19T02:09:17;10.00;99.90
56240;DHT22;42154;51.992;5.896;2023-04-19T02:11:44;10.00;99.90
56240;DHT22;42154;51.992;5.896;2023-04-19T02:14:10;10.00;99.90
56240;DHT22;42154;51.992;5.896;2023-04-19T02:16:36;10.00;99.90
56240;DHT22;42154;51.992;5.896;2023-04-19T02:19:02;9.90;99.90
56240;DHT22;42154;51.992;5.896;2023-04-19T02:21:28;10.00;99.90
56240;DHT22;42154;51.992;5.896;2023-04-19T02:23:54;10.00;99.90
56240;DHT22;42154;51.992;5.896;2023-04-19T02:26:20;10.00;99.90
56240;DHT22;42154;51.992;5.896;2023-04-19T02:28:46;10.00;99.90
56240;DHT22;42154;51.992;5.896;2023-04-19T02:31:12;10.10;99.90
56240;DHT22;42154;51.992;5.896;2023-04-19T02:33:38;10.10;99.90
56240;DHT22;42154;51.992;5.896;2023-04-19T02:36:03;10.10;99.90
56240;DHT22;42154;51.992;5.896;2023-04-19T02:38:29;10.20;99.90
56240;DHT22;42154;51.992;5.896;2023-04-19T02:40:55;10.20;99.90
56240;DHT22;42154;51.992;5.896;2023-04-19T02:43:21;10.20;99.90
56240;DHT22;42154;51.992;5.896;2023-04-19T02:45:46;10.20;99.90
56240;DHT22;42154;51.992;5.896;2023-04-19T02:48:12;10.30;99.90
56240;DHT22;42154;51.992;5.896;2023-04-19T02:50:38;10.30;99.90
56240;DHT22;42154;51.992;5.896;2023-04-19T02:53:04;10.30;99.90
56240;DHT22;42154;51.992;5.896;2023-04-19T02:55:31;10.30;99.90
56240;DHT22;42154;51.992;5.896;2023-04-19T02:58:04;10.30;99.90
56240;DHT22;42154;51.992;5.896;2023-04-19T03:00:35;10.30;99.90
56240;DHT22;42154;51.992;5.896;2023-04-19T03:03:07;10.30;99.90
56240;DHT22;42154;51.992;5.896;2023-04-19T03:05:34;10.30;99.90
56240;DHT22;42154;51.992;5.896;2023-04-19T03:07:59;10.30;99.90
56240;DHT22;42154;51.992;5.896;2023-04-19T03:10:26;10.40;99.90
56240;DHT22;42154;51.992;5.896;2023-04-19T03:12:51;10.40;99.90
56240;DHT22;42154;51.992;5.896;2023-04-19T03:15:18;10.40;99.90
56240;DHT22;42154;51.992;5.896;2023-04-19T03:17:44;10.40;99.90
56240;DHT22;42154;51.992;5.896;2023-04-19T03:20:11;10.40;99.90
56240;DHT22;42154;51.992;5.896;2023-04-19T03:22:37;10.40;99.90
56240;DHT22;42154;51.992;5.896;2023-04-19T03:25:03;10.40;99.90
56240;DHT22;42154;51.992;5.896;2023-04-19T03:27:30;10.40;99.90
56240;DHT22;42154;51.992;5.896;2023-04-19T03:30:01;10.40;99.90
56240;DHT22;42154;51.992;5.896;2023-04-19T03:32:29;10.40;99.90
56240;DHT22;42154;51.992;5.896;2023-04-19T03:34:56;10.30;99.90
56240;DHT22;42154;51.992;5.896;2023-04-19T03:37:21;10.30;99.90
56240;DHT22;42154;51.992;5.896;2023-04-19T03:39:47;10.30;99.90
56240;DHT22;42154;51.992;5.896;2023-04-19T03:42:19;10.20;99.90
56240;DHT22;42154;51.992;5.896;2023-04-19T03:44:54;10.20;99.90
56240;DHT22;42154;51.992;5.896;2023-04-19T03:47:21;10.20;99.90
56240;DHT22;42154;51.992;5.896;2023-04-19T03:49:48;10.20;99.90
56240;DHT22;42154;51.992;5.896;2023-04-19T03:52:16;10.10;99.90
56240;DHT22;42154;51.992;5.896;2023-04-19T03:54:41;10.10;99.90
56240;DHT22;42154;51.992;5.896;2023-04-19T03:57:16;10.10;99.90
56240;DHT22;42154;51.992;5.896;2023-04-19T03:59:42;10.10;99.90
56240;DHT22;42154;51.992;5.896;2023-04-19T04:02:08;10.00;99.90
56240;DHT22;42154;51.992;5.896;2023-04-19T04:04:34;10.00;99.90
56240;DHT22;42154;51.992;5.896;2023-04-19T04:07:00;9.90;99.90
56240;DHT22;42154;51.992;5.896;2023-04-19T04:09:27;9.90;99.90
56240;DHT22;42154;51.992;5.896;2023-04-19T04:11:52;9.80;99.90
56240;DHT22;42154;51.992;5.896;2023-04-19T04:14:18;9.80;99.90
56240;DHT22;42154;51.992;5.896;2023-04-19T04:16:45;9.70;99.90
56240;DHT22;42154;51.992;5.896;2023-04-19T04:19:11;9.70;99.90
56240;DHT22;42154;51.992;5.896;2023-04-19T04:21:40;9.60;99.90
56240;DHT22;42154;51.992;5.896;2023-04-19T04:24:07;9.60;99.90
56240;DHT22;42154;51.992;5.896;2023-04-19T04:27:10;9.60;99.90
56240;DHT22;42154;51.992;5.896;2023-04-19T04:29:38;9.50;99.90
56240;DHT22;42154;51.992;5.896;2023-04-19T04:32:07;9.50;99.90
56240;DHT22;42154;51.992;5.896;2023-04-19T04:34:38;9.50;99.90
56240;DHT22;42154;51.992;5.896;2023-04-19T04:37:08;9.40;99.90
56240;DHT22;42154;51.992;5.896;2023-04-19T04:39:37;9.40;99.90
56240;DHT22;42154;51.992;5.896;2023-04-19T04:42:07;9.50;99.90
56240;DHT22;42154;51.992;5.896;2023-04-19T04:44:34;9.40;99.90
56240;DHT22;42154;51.992;5.896;2023-04-19T04:47:00;9.30;99.90
56240;DHT22;42154;51.992;5.896;2023-04-19T04:49:29;9.30;99.90
56240;DHT22;42154;51.992;5.896;2023-04-19T04:51:57;9.30;99.90
56240;DHT22;42154;51.992;5.896;2023-04-19T04:54:24;9.20;99.90
56240;DHT22;42154;51.992;5.896;2023-04-19T04:56:50;9.20;99.90
56240;DHT22;42154;51.992;5.896;2023-04-19T04:59:16;9.20;99.90
56240;DHT22;42154;51.992;5.896;2023-04-19T05:01:45;9.20;99.90
56240;DHT22;42154;51.992;5.896;2023-04-19T05:04:11;9.10;99.90
56240;DHT22;42154;51.992;5.896;2023-04-19T05:06:37;9.10;99.90
56240;DHT22;42154;51.992;5.896;2023-04-19T05:09:06;9.00;99.90
56240;DHT22;42154;51.992;5.896;2023-04-19T05:11:34;9.00;99.90
56240;DHT22;42154;51.992;5.896;2023-04-19T05:14:00;9.00;99.90
56240;DHT22;42154;51.992;5.896;2023-04-19T05:16:26;9.00;99.90
56240;DHT22;42154;51.992;5.896;2023-04-19T05:18:52;9.00;99.90
56240;DHT22;42154;51.992;5.896;2023-04-19T05:21:18;9.00;99.90
56240;DHT22;42154;51.992;5.896;2023-04-19T05:23:44;9.00;99.90
56240;DHT22;42154;51.992;5.896;2023-04-19T05:26:11;9.00;99.90
56240;DHT22;42154;51.992;5.896;2023-04-19T05:28:40;9.00;99.90
56240;DHT22;42154;51.992;5.896;2023-04-19T05:31:12;9.00;99.90
56240;DHT22;42154;51.992;5.896;2023-04-19T05:33:49;9.00;99.90
56240;DHT22;42154;51.992;5.896;2023-04-19T05:36:15;9.00;99.90
56240;DHT22;42154;51.992;5.896;2023-04-19T05:38:40;9.00;99.90
56240;DHT22;42154;51.992;5.896;2023-04-19T05:41:06;9.10;99.90
56240;DHT22;42154;51.992;5.896;2023-04-19T05:43:32;9.00;99.90
56240;DHT22;42154;51.992;5.896;2023-04-19T05:45:58;9.10;99.90
56240;DHT22;42154;51.992;5.896;2023-04-19T05:48:24;9.00;99.90
56240;DHT22;42154;51.992;5.896;2023-04-19T05:51:19;9.10;99.90
56240;DHT22;42154;51.992;5.896;2023-04-19T05:53:59;9.10;99.90
56240;DHT22;42154;51.992;5.896;2023-04-19T05:56:25;9.10;99.90
56240;DHT22;42154;51.992;5.896;2023-04-19T05:58:51;9.10;99.90
56240;DHT22;42154;51.992;5.896;2023-04-19T06:01:17;9.20;99.90
56240;DHT22;42154;51.992;5.896;2023-04-19T06:03:43;9.20;99.90
56240;DHT22;42154;51.992;5.896;2023-04-19T06:06:10;9.20;99.90
56240;DHT22;42154;51.992;5.896;2023-04-19T06:08:35;9.30;99.90
56240;DHT22;42154;51.992;5.896;2023-04-19T06:11:01;9.30;99.90
56240;DHT22;42154;51.992;5.896;2023-04-19T06:13:27;9.40;99.90
56240;DHT22;42154;51.992;5.896;2023-04-19T06:15:52;9.40;99.90
56240;DHT22;42154;51.992;5.896;2023-04-19T06:18:18;9.40;99.90
56240;DHT22;42154;51.992;5.896;2023-04-19T06:20:44;9.50;99.90
56240;DHT22;42154;51.992;5.896;2023-04-19T06:23:10;9.50;99.90
56240;DHT22;42154;51.992;5.896;2023-04-19T06:25:37;9.60;99.90
56240;DHT22;42154;51.992;5.896;2023-04-19T06:28:03;9.60;99.90
56240;DHT22;42154;51.992;5.896;2023-04-19T06:30:29;9.70;99.90
56240;DHT22;42154;51.992;5.896;2023-04-19T06:32:54;9.80;99.90
56240;DHT22;42154;51.992;5.896;2023-04-19T06:35:20;9.90;99.90
56240;DHT22;42154;51.992;5.896;2023-04-19T06:37:46;9.90;99.90
56240;DHT22;42154;51.992;5.896;2023-04-19T06:40:12;10.00;99.90
56240;DHT22;42154;51.992;5.896;2023-04-19T06:42:38;10.00;99.90
56240;DHT22;42154;51.992;5.896;2023-04-19T06:45:05;10.00;99.90
56240;DHT22;42154;51.992;5.896;2023-04-19T06:47:32;10.00;99.90
56240;DHT22;42154;51.992;5.896;2023-04-19T06:49:58;10.00;99.90
56240;DHT22;42154;51.992;5.896;2023-04-19T06:52:23;10.10;99.90
56240;DHT22;42154;51.992;5.896;2023-04-19T06:54:50;10.10;99.90
56240;DHT22;42154;51.992;5.896;2023-04-19T06:57:16;10.10;99.90
56240;DHT22;42154;51.992;5.896;2023-04-19T06:59:42;10.20;99.90
56240;DHT22;42154;51.992;5.896;2023-04-19T07:02:08;10.20;98.30
56240;DHT22;42154;51.992;5.896;2023-04-19T07:04:34;10.10;98.80
56240;DHT22;42154;51.992;5.896;2023-04-19T07:07:00;10.20;98.10
56240;DHT22;42154;51.992;5.896;2023-04-19T07:09:27;10.20;97.70
56240;DHT22;42154;51.992;5.896;2023-04-19T07:11:53;10.20;96.40
56240;DHT22;42154;51.992;5.896;2023-04-19T07:14:19;10.20;95.50
56240;DHT22;42154;51.992;5.896;2023-04-19T07:16:45;10.20;95.70
56240;DHT22;42154;51.992;5.896;2023-04-19T07:19:12;10.20;95.20
56240;DHT22;42154;51.992;5.896;2023-04-19T07:21:38;10.30;95.70
56240;DHT22;42154;51.992;5.896;2023-04-19T07:24:05;10.30;95.30
56240;DHT22;42154;51.992;5.896;2023-04-19T07:26:31;10.30;94.60
56240;DHT22;42154;51.992;5.896;2023-04-19T07:28:58;10.40;93.80
56240;DHT22;42154;51.992;5.896;2023-04-19T07:31:24;10.30;94.00
56240;DHT22;42154;51.992;5.896;2023-04-19T07:33:50;10.40;94.10
56240;DHT22;42154;51.992;5.896;2023-04-19T07:36:17;10.40;93.60
56240;DHT22;42154;51.992;5.896;2023-04-19T07:38:43;10.50;93.60
56240;DHT22;42154;51.992;5.896;2023-04-19T07:41:09;10.50;92.60
56240;DHT22;42154;51.992;5.896;2023-04-19T07:43:35;10.40;92.80
56240;DHT22;42154;51.992;5.896;2023-04-19T07:46:01;10.40;92.80
56240;DHT22;42154;51.992;5.896;2023-04-19T07:48:33;10.40;93.00
56240;DHT22;42154;51.992;5.896;2023-04-19T07:51:10;10.50;93.00
56240;DHT22;42154;51.992;5.896;2023-04-19T07:53:37;10.60;92.90
56240;DHT22;42154;51.992;5.896;2023-04-19T07:56:03;10.70;92.70
56240;DHT22;42154;51.992;5.896;2023-04-19T07:58:29;10.80;91.60
56240;DHT22;42154;51.992;5.896;2023-04-19T08:00:55;10.80;91.30
56240;DHT22;42154;51.992;5.896;2023-04-19T08:03:20;10.80;91.50
56240;DHT22;42154;51.992;5.896;2023-04-19T08:05:46;10.90;91.90
56240;DHT22;42154;51.992;5.896;2023-04-19T08:08:12;10.90;91.50
56240;DHT22;42154;51.992;5.896;2023-04-19T08:10:37;11.00;91.10
56240;DHT22;42154;51.992;5.896;2023-04-19T08:13:03;11.00;90.60
56240;DHT22;42154;51.992;5.896;2023-04-19T08:15:29;11.00;90.00
56240;DHT22;42154;51.992;5.896;2023-04-19T08:17:55;11.00;90.30
56240;DHT22;42154;51.992;5.896;2023-04-19T08:20:20;11.00;90.50
56240;DHT22;42154;51.992;5.896;2023-04-19T08:22:47;11.00;90.40
56240;DHT22;42154;51.992;5.896;2023-04-19T08:25:12;11.10;90.40
56240;DHT22;42154;51.992;5.896;2023-04-19T08:27:38;11.10;90.20
56240;DHT22;42154;51.992;5.896;2023-04-19T08:30:04;11.10;90.10
56240;DHT22;42154;51.992;5.896;2023-04-19T08:32:32;11.20;89.90
56240;DHT22;42154;51.992;5.896;2023-04-19T08:34:58;11.20;88.90
56240;DHT22;42154;51.992;5.896;2023-04-19T08:37:25;11.30;89.60
56240;DHT22;42154;51.992;5.896;2023-04-19T08:39:51;11.30;88.50
56240;DHT22;42154;51.992;5.896;2023-04-19T08:42:18;11.40;88.00
56240;DHT22;42154;51.992;5.896;2023-04-19T08:44:45;11.40;87.70
56240;DHT22;42154;51.992;5.896;2023-04-19T08:47:11;11.50;87.60
56240;DHT22;42154;51.992;5.896;2023-04-19T08:49:38;11.50;85.80
56240;DHT22;42154;51.992;5.896;2023-04-19T08:52:06;11.60;85.60
56240;DHT22;42154;51.992;5.896;2023-04-19T08:54:34;11.60;86.00
56240;DHT22;42154;51.992;5.896;2023-04-19T08:57:00;11.70;86.60
56240;DHT22;42154;51.992;5.896;2023-04-19T08:59:28;11.90;85.10
56240;DHT22;42154;51.992;5.896;2023-04-19T09:01:56;11.80;83.00
56240;DHT22;42154;51.992;5.896;2023-04-19T09:04:24;11.90;83.00
56240;DHT22;42154;51.992;5.896;2023-04-19T09:06:50;11.90;82.90
56240;DHT22;42154;51.992;5.896;2023-04-19T09:09:21;11.90;83.00
56240;DHT22;42154;51.992;5.896;2023-04-19T09:11:48;11.90;81.70
56240;DHT22;42154;51.992;5.896;2023-04-19T09:14:17;11.90;81.50
56240;DHT22;42154;51.992;5.896;2023-04-19T09:16:43;12.00;83.60
56240;DHT22;42154;51.992;5.896;2023-04-19T09:19:09;12.10;81.50
56240;DHT22;42154;51.992;5.896;2023-04-19T09:21:37;12.00;80.30
56240;DHT22;42154;51.992;5.896;2023-04-19T09:24:03;12.00;81.80
56240;DHT22;42154;51.992;5.896;2023-04-19T09:26:30;12.00;82.80
56240;DHT22;42154;51.992;5.896;2023-04-19T09:28:57;12.10;82.80
56240;DHT22;42154;51.992;5.896;2023-04-19T09:31:24;12.20;83.50
56240;DHT22;42154;51.992;5.896;2023-04-19T09:33:50;12.30;83.30
56240;DHT22;42154;51.992;5.896;2023-04-19T09:36:32;12.20;81.10
56240;DHT22;42154;51.992;5.896;2023-04-19T09:38:58;12.20;80.80
56240;DHT22;42154;51.992;5.896;2023-04-19T09:41:27;12.10;81.40
56240;DHT22;42154;51.992;5.896;2023-04-19T09:43:52;12.10;80.30
56240;DHT22;42154;51.992;5.896;2023-04-19T09:46:35;12.10;80.90
56240;DHT22;42154;51.992;5.896;2023-04-19T09:51:53;12.00;80.10
56240;DHT22;42154;51.992;5.896;2023-04-19T09:54:20;12.00;78.60
56240;DHT22;42154;51.992;5.896;2023-04-19T09:56:47;12.10;80.00
56240;DHT22;42154;51.992;5.896;2023-04-19T09:59:13;12.20;80.50
56240;DHT22;42154;51.992;5.896;2023-04-19T10:01:43;12.20;78.30
56240;DHT22;42154;51.992;5.896;2023-04-19T10:04:10;12.30;78.70
56240;DHT22;42154;51.992;5.896;2023-04-19T10:06:39;12.30;79.20
56240;DHT22;42154;51.992;5.896;2023-04-19T10:09:08;12.40;77.80
56240;DHT22;42154;51.992;5.896;2023-04-19T10:11:36;12.50;76.90
56240;DHT22;42154;51.992;5.896;2023-04-19T10:14:07;12.50;76.10
56240;DHT22;42154;51.992;5.896;2023-04-19T10:16:35;12.60;75.70
56240;DHT22;42154;51.992;5.896;2023-04-19T10:19:11;12.70;76.70
56240;DHT22;42154;51.992;5.896;2023-04-19T10:21:37;12.80;76.60
56240;DHT22;42154;51.992;5.896;2023-04-19T10:24:04;12.90;76.50
56240;DHT22;42154;51.992;5.896;2023-04-19T10:30:02;13.00;76.90
56240;DHT22;42154;51.992;5.896;2023-04-19T10:35:16;12.90;75.70
56240;DHT22;42154;51.992;5.896;2023-04-19T10:38:07;12.90;73.80
56240;DHT22;42154;51.992;5.896;2023-04-19T10:43:18;12.90;73.70
56240;DHT22;42154;51.992;5.896;2023-04-19T10:45:45;12.90;74.90
56240;DHT22;42154;51.992;5.896;2023-04-19T10:51:13;13.00;75.70
56240;DHT22;42154;51.992;5.896;2023-04-19T10:53:51;13.10;73.70
56240;DHT22;42154;51.992;5.896;2023-04-19T10:56:22;13.20;72.70
56240;DHT22;42154;51.992;5.896;2023-04-19T10:59:12;13.20;72.30
56240;DHT22;42154;51.992;5.896;2023-04-19T11:01:45;13.20;70.90
56240;DHT22;42154;51.992;5.896;2023-04-19T11:12:04;13.30;71.70
56240;DHT22;42154;51.992;5.896;2023-04-19T11:14:35;13.40;72.80
56240;DHT22;42154;51.992;5.896;2023-04-19T11:17:12;13.50;69.90
56240;DHT22;42154;51.992;5.896;2023-04-19T11:19:42;13.60;69.40
56240;DHT22;42154;51.992;5.896;2023-04-19T11:22:08;13.70;68.90
56240;DHT22;42154;51.992;5.896;2023-04-19T11:24:34;13.80;69.60
56240;DHT22;42154;51.992;5.896;2023-04-19T11:27:00;14.00;67.60
56240;DHT22;42154;51.992;5.896;2023-04-19T11:29:31;14.10;66.10
56240;DHT22;42154;51.992;5.896;2023-04-19T11:31:59;14.20;63.80
56240;DHT22;42154;51.992;5.896;2023-04-19T11:34:25;14.20;61.30
56240;DHT22;42154;51.992;5.896;2023-04-19T11:36:51;14.20;60.80
56240;DHT22;42154;51.992;5.896;2023-04-19T11:39:17;14.20;60.80
56240;DHT22;42154;51.992;5.896;2023-04-19T11:41:43;14.30;62.20
56240;DHT22;42154;51.992;5.896;2023-04-19T11:44:18;14.30;62.20
56240;DHT22;42154;51.992;5.896;2023-04-19T11:46:57;14.40;62.00
56240;DHT22;42154;51.992;5.896;2023-04-19T11:49:28;14.40;63.60
56240;DHT22;42154;51.992;5.896;2023-04-19T11:51:59;14.40;59.90
56240;DHT22;42154;51.992;5.896;2023-04-19T11:54:25;14.40;59.80
56240;DHT22;42154;51.992;5.896;2023-04-19T11:57:07;14.40;60.60
56240;DHT22;42154;51.992;5.896;2023-04-19T11:59:34;14.50;61.50
56240;DHT22;42154;51.992;5.896;2023-04-19T12:02:18;14.60;61.00
56240;DHT22;42154;51.992;5.896;2023-04-19T12:04:44;14.70;60.20
56240;DHT22;42154;51.992;5.896;2023-04-19T12:07:10;14.70;58.90
56240;DHT22;42154;51.992;5.896;2023-04-19T12:09:36;14.70;57.60
56240;DHT22;42154;51.992;5.896;2023-04-19T12:12:03;14.60;56.50
56240;DHT22;42154;51.992;5.896;2023-04-19T12:14:29;14.60;57.50
56240;DHT22;42154;51.992;5.896;2023-04-19T12:17:09;14.60;58.20
56240;DHT22;42154;51.992;5.896;2023-04-19T12:19:41;14.70;57.50
56240;DHT22;42154;51.992;5.896;2023-04-19T12:22:12;14.70;56.40
56240;DHT22;42154;51.992;5.896;2023-04-19T12:24:38;14.70;58.20
56240;DHT22;42154;51.992;5.896;2023-04-19T12:27:05;14.80;57.30
56240;DHT22;42154;51.992;5.896;2023-04-19T12:29:31;14.80;56.90
56240;DHT22;42154;51.992;5.896;2023-04-19T12:31:58;14.90;57.80
56240;DHT22;42154;51.992;5.896;2023-04-19T12:34:24;15.00;58.80
56240;DHT22;42154;51.992;5.896;2023-04-19T12:36:50;15.10;58.90
56240;DHT22;42154;51.992;5.896;2023-04-19T12:39:15;15.10;58.50
56240;DHT22;42154;51.992;5.896;2023-04-19T12:41:42;15.10;57.50
56240;DHT22;42154;51.992;5.896;2023-04-19T12:44:07;15.10;59.40
56240;DHT22;42154;51.992;5.896;2023-04-19T12:46:33;15.10;58.20
56240;DHT22;42154;51.992;5.896;2023-04-19T12:48:59;15.10;58.10
56240;DHT22;42154;51.992;5.896;2023-04-19T12:51:25;15.10;58.60
56240;DHT22;42154;51.992;5.896;2023-04-19T12:53:53;15.10;59.50
56240;DHT22;42154;51.992;5.896;2023-04-19T12:56:19;15.10;58.40
56240;DHT22;42154;51.992;5.896;2023-04-19T12:58:45;15.10;58.90
56240;DHT22;42154;51.992;5.896;2023-04-19T13:01:11;15.20;58.30
56240;DHT22;42154;51.992;5.896;2023-04-19T13:03:37;15.10;56.60
56240;DHT22;42154;51.992;5.896;2023-04-19T13:06:03;15.10;56.60
56240;DHT22;42154;51.992;5.896;2023-04-19T13:08:29;15.20;57.80
56240;DHT22;42154;51.992;5.896;2023-04-19T13:10:55;15.10;56.80
56240;DHT22;42154;51.992;5.896;2023-04-19T13:13:21;15.10;57.00
56240;DHT22;42154;51.992;5.896;2023-04-19T13:15:47;15.10;56.90
56240;DHT22;42154;51.992;5.896;2023-04-19T13:18:13;15.10;57.50
56240;DHT22;42154;51.992;5.896;2023-04-19T13:20:38;15.20;56.30
56240;DHT22;42154;51.992;5.896;2023-04-19T13:23:05;15.30;56.60
56240;DHT22;42154;51.992;5.896;2023-04-19T13:25:30;15.30;54.50
56240;DHT22;42154;51.992;5.896;2023-04-19T13:27:56;15.30;54.50
56240;DHT22;42154;51.992;5.896;2023-04-19T13:30:22;15.30;54.10
56240;DHT22;42154;51.992;5.896;2023-04-19T13:32:47;15.20;54.00
56240;DHT22;42154;51.992;5.896;2023-04-19T13:35:13;15.20;54.40
56240;DHT22;42154;51.992;5.896;2023-04-19T13:37:39;15.30;55.10
56240;DHT22;42154;51.992;5.896;2023-04-19T13:40:07;15.30;54.40
56240;DHT22;42154;51.992;5.896;2023-04-19T13:42:32;15.30;54.50
56240;DHT22;42154;51.992;5.896;2023-04-19T13:44:58;15.30;54.90
56240;DHT22;42154;51.992;5.896;2023-04-19T13:47:24;15.40;55.80
56240;DHT22;42154;51.992;5.896;2023-04-19T13:49:50;15.50;54.90
56240;DHT22;42154;51.992;5.896;2023-04-19T13:52:17;15.60;53.70
56240;DHT22;42154;51.992;5.896;2023-04-19T13:54:43;15.60;52.90
56240;DHT22;42154;51.992;5.896;2023-04-19T13:57:09;15.50;54.40
56240;DHT22;42154;51.992;5.896;2023-04-19T13:59:35;15.60;54.50
56240;DHT22;42154;51.992;5.896;2023-04-19T14:02:03;15.60;54.00
56240;DHT22;42154;51.992;5.896;2023-04-19T14:04:29;15.50;54.50
56240;DHT22;42154;51.992;5.896;2023-04-19T14:06:55;15.60;55.90
56240;DHT22;42154;51.992;5.896;2023-04-19T14:09:21;15.70;55.40
56240;DHT22;42154;51.992;5.896;2023-04-19T14:11:47;15.70;55.00
56240;DHT22;42154;51.992;5.896;2023-04-19T14:14:14;15.70;54.80
56240;DHT22;42154;51.992;5.896;2023-04-19T14:16:40;15.70;55.10
56240;DHT22;42154;51.992;5.896;2023-04-19T14:19:06;15.70;55.60
56240;DHT22;42154;51.992;5.896;2023-04-19T14:21:31;15.60;54.90
56240;DHT22;42154;51.992;5.896;2023-04-19T14:23:57;15.70;54.60
56240;DHT22;42154;51.992;5.896;2023-04-19T14:26:23;15.60;54.90
56240;DHT22;42154;51.992;5.896;2023-04-19T14:28:49;15.60;55.30
56240;DHT22;42154;51.992;5.896;2023-04-19T14:31:15;15.60;55.90
56240;DHT22;42154;51.992;5.896;2023-04-19T14:33:40;15.70;57.90
56240;DHT22;42154;51.992;5.896;2023-04-19T14:36:06;15.80;56.90
56240;DHT22;42154;51.992;5.896;2023-04-19T14:38:33;15.80;56.60
56240;DHT22;42154;51.992;5.896;2023-04-19T14:40:58;15.80;57.70
56240;DHT22;42154;51.992;5.896;2023-04-19T14:43:24;15.70;57.70
56240;DHT22;42154;51.992;5.896;2023-04-19T14:45:51;15.80;58.10
56240;DHT22;42154;51.992;5.896;2023-04-19T14:48:16;15.80;58.00
56240;DHT22;42154;51.992;5.896;2023-04-19T14:50:42;15.80;58.30
56240;DHT22;42154;51.992;5.896;2023-04-19T14:53:08;15.80;58.50
56240;DHT22;42154;51.992;5.896;2023-04-19T14:55:36;15.80;58.30
56240;DHT22;42154;51.992;5.896;2023-04-19T14:58:03;15.80;57.80
56240;DHT22;42154;51.992;5.896;2023-04-19T15:00:29;15.80;57.90
56240;DHT22;42154;51.992;5.896;2023-04-19T15:02:55;15.80;57.50
56240;DHT22;42154;51.992;5.896;2023-04-19T15:05:21;15.90;57.90
56240;DHT22;42154;51.992;5.896;2023-04-19T15:07:48;15.90;56.90
56240;DHT22;42154;51.992;5.896;2023-04-19T15:10:13;15.80;57.20
56240;DHT22;42154;51.992;5.896;2023-04-19T15:12:39;15.80;57.70
56240;DHT22;42154;51.992;5.896;2023-04-19T15:15:06;15.70;57.90
56240;DHT22;42154;51.992;5.896;2023-04-19T15:17:32;15.70;58.10
56240;DHT22;42154;51.992;5.896;2023-04-19T15:19:58;15.70;58.20
56240;DHT22;42154;51.992;5.896;2023-04-19T15:22:24;15.80;57.60
56240;DHT22;42154;51.992;5.896;2023-04-19T15:24:50;15.70;57.60
56240;DHT22;42154;51.992;5.896;2023-04-19T15:27:15;15.70;58.10
56240;DHT22;42154;51.992;5.896;2023-04-19T15:29:41;15.80;57.40
56240;DHT22;42154;51.992;5.896;2023-04-19T15:32:07;15.70;57.80
56240;DHT22;42154;51.992;5.896;2023-04-19T15:34:32;15.70;56.90
56240;DHT22;42154;51.992;5.896;2023-04-19T15:36:58;15.60;57.30
56240;DHT22;42154;51.992;5.896;2023-04-19T15:39:26;15.60;57.20
56240;DHT22;42154;51.992;5.896;2023-04-19T15:41:51;15.60;58.30
56240;DHT22;42154;51.992;5.896;2023-04-19T15:44:17;15.70;58.00
56240;DHT22;42154;51.992;5.896;2023-04-19T15:46:43;15.70;58.00
56240;DHT22;42154;51.992;5.896;2023-04-19T15:49:09;15.70;58.70
56240;DHT22;42154;51.992;5.896;2023-04-19T15:51:34;15.80;58.90
56240;DHT22;42154;51.992;5.896;2023-04-19T15:54:00;15.90;58.60